createdAt,value
2018-11-20T00:00:10.278Z,60.33
2018-11-20T00:01:09.996Z,60.33
2018-11-20T00:02:09.972Z,60.43
2018-11-20T00:03:09.967Z,60.57
2018-11-20T00:04:09.944Z,60.33
2018-11-20T00:05:10.008Z,60.46
2018-11-20T00:06:09.968Z,60.22
2018-11-20T00:07:09.911Z,60.33
2018-11-20T00:08:09.901Z,60.57
2018-11-20T00:09:09.899Z,60.57
2018-11-20T00:10:09.881Z,60.64
2018-11-20T00:11:09.867Z,60.43
2018-11-20T00:12:09.913Z,60.43
2018-11-20T00:13:09.845Z,60.53
2018-11-20T00:14:09.837Z,60.57
2018-11-20T00:15:09.821Z,60.88
2018-11-20T00:16:09.826Z,60.98
2018-11-20T00:17:09.799Z,60.46
2018-11-20T00:18:09.838Z,60.98
2018-11-20T00:19:09.782Z,60.57
2018-11-20T00:20:09.767Z,60.88
2018-11-20T00:21:09.760Z,60.88
2018-11-20T00:22:09.763Z,60.98
2018-11-20T00:23:09.737Z,60.57
2018-11-20T00:24:09.778Z,60.57
2018-11-20T00:25:09.720Z,60.57
2018-11-20T00:26:09.703Z,60.88
2018-11-20T00:27:09.690Z,60.36
2018-11-20T00:28:09.707Z,60.88
2018-11-20T00:29:09.674Z,61.08
2018-11-20T00:30:09.773Z,60.67
2018-11-20T00:31:09.650Z,60.43
2018-11-20T00:32:09.638Z,60.67
2018-11-20T00:33:09.691Z,60.57
2018-11-20T00:34:09.664Z,60.85
2018-11-20T00:35:09.625Z,60.98
2018-11-20T00:36:09.591Z,60.98
2018-11-20T00:37:09.580Z,60.57
2018-11-20T00:38:09.572Z,60.88
2018-11-20T00:39:09.570Z,60.88
2018-11-20T00:40:09.594Z,60.88
2018-11-20T00:41:09.545Z,60.77
2018-11-20T00:42:09.529Z,60.88
2018-11-20T00:43:09.520Z,60.67
2018-11-20T00:44:09.569Z,60.77
2018-11-20T00:45:09.497Z,61.29
2018-11-20T00:46:09.504Z,61.19
2018-11-20T00:47:09.474Z,61.71
2018-11-20T00:48:09.463Z,61.29
2018-11-20T00:49:09.449Z,60.88
2018-11-20T00:50:09.511Z,60.98
2018-11-20T00:51:09.441Z,60.67
2018-11-20T00:52:09.420Z,60.88
2018-11-20T00:53:09.412Z,60.88
2018-11-20T00:54:09.699Z,60.88
2018-11-20T00:55:09.384Z,61.19
2018-11-20T00:56:09.375Z,61.19
2018-11-20T00:57:10.181Z,61.29
2018-11-20T00:58:09.353Z,61.19
2018-11-20T00:59:09.347Z,61.50
2018-11-20T01:00:09.377Z,61.29
2018-11-20T01:01:09.319Z,61.19
2018-11-20T01:02:09.312Z,61.40
2018-11-20T01:03:09.361Z,61.19
2018-11-20T01:04:09.294Z,61.08
2018-11-20T01:05:09.277Z,60.77
2018-11-20T01:06:09.263Z,60.88
2018-11-20T01:07:09.262Z,60.46
2018-11-20T01:08:09.243Z,60.91
2018-11-20T01:09:09.280Z,61.08
2018-11-20T01:10:09.234Z,60.88
2018-11-20T01:11:09.223Z,61.08
2018-11-20T01:12:09.219Z,60.98
2018-11-20T01:13:09.189Z,60.98
2018-11-20T01:14:09.185Z,60.88
2018-11-20T01:15:09.211Z,61.11
2018-11-20T01:16:09.157Z,61.11
2018-11-20T01:17:09.190Z,61.32
2018-11-20T01:18:09.133Z,61.29
2018-11-20T01:19:09.124Z,61.19
2018-11-20T01:20:09.116Z,61.19
2018-11-20T01:21:09.117Z,61.22
2018-11-20T01:22:09.092Z,61.43
2018-11-20T01:23:09.128Z,61.19
2018-11-20T01:24:09.124Z,61.32
2018-11-20T01:25:09.056Z,61.29
2018-11-20T01:26:09.047Z,61.40
2018-11-20T01:27:09.090Z,61.81
2018-11-20T01:28:09.022Z,61.08
2018-11-20T01:29:09.013Z,60.88
2018-11-20T01:30:09.008Z,61.29
2018-11-20T01:31:08.996Z,61.19
2018-11-20T01:32:08.991Z,61.22
2018-11-20T01:33:09.014Z,61.19
2018-11-20T01:34:08.960Z,61.40
2018-11-20T01:35:09.002Z,61.22
2018-11-20T01:36:08.938Z,61.32
2018-11-20T01:37:08.928Z,61.32
2018-11-20T01:38:08.914Z,61.53
2018-11-20T01:39:08.902Z,61.63
2018-11-20T01:40:08.945Z,61.22
2018-11-20T01:41:08.884Z,61.29
2018-11-20T01:42:08.877Z,61.29
2018-11-20T01:43:08.876Z,61.40
2018-11-20T01:44:08.861Z,60.88
2018-11-20T01:45:08.841Z,60.57
2018-11-20T01:46:08.881Z,60.46
2018-11-20T01:47:08.838Z,60.36
2018-11-20T01:48:08.805Z,60.46
2018-11-20T01:49:08.802Z,60.98
2018-11-20T01:50:08.806Z,60.98
2018-11-20T01:51:08.796Z,60.88
2018-11-20T01:52:08.820Z,60.88
2018-11-20T01:53:08.751Z,61.01
2018-11-20T01:54:08.740Z,60.88
2018-11-20T01:55:08.742Z,61.19
2018-11-20T01:56:08.767Z,60.88
2018-11-20T01:57:08.708Z,60.46
2018-11-20T01:58:08.714Z,61.29
2018-11-20T01:59:08.688Z,61.08
2018-11-20T02:00:08.680Z,60.77
2018-11-20T02:01:08.678Z,60.98
2018-11-20T02:02:08.698Z,60.05
2018-11-20T02:03:08.653Z,60.15
2018-11-20T02:04:08.701Z,60.46
2018-11-20T02:05:08.626Z,60.57
2018-11-20T02:06:08.616Z,60.25
2018-11-20T02:07:08.647Z,60.36
2018-11-20T02:08:08.589Z,60.49
2018-11-20T02:09:08.578Z,60.80
2018-11-20T02:10:08.569Z,60.88
2018-11-20T02:11:08.554Z,60.46
2018-11-20T02:12:08.547Z,60.80
2018-11-20T02:13:08.782Z,60.57
2018-11-20T02:14:08.523Z,60.80
2018-11-20T02:15:08.778Z,60.60
2018-11-20T02:16:08.501Z,60.60
2018-11-20T02:17:08.494Z,60.70
2018-11-20T02:18:08.477Z,60.91
2018-11-20T02:19:08.514Z,60.46
2018-11-20T02:20:08.460Z,60.91
2018-11-20T02:21:08.450Z,61.22
2018-11-20T02:22:08.436Z,61.01
2018-11-20T02:23:08.427Z,61.32
2018-11-20T02:24:08.431Z,61.22
2018-11-20T02:25:08.449Z,61.01
2018-11-20T02:26:08.393Z,61.43
2018-11-20T02:27:08.382Z,61.32
2018-11-20T02:28:08.371Z,61.74
2018-11-20T02:29:08.368Z,61.11
2018-11-20T02:30:08.381Z,61.11
2018-11-20T02:31:08.393Z,61.45
2018-11-20T02:32:08.335Z,61.87
2018-11-20T02:33:08.315Z,61.90
2018-11-20T02:34:08.305Z,62.49
2018-11-20T02:35:08.312Z,62.49
2018-11-20T02:36:08.569Z,62.28
2018-11-20T02:37:08.271Z,61.97
2018-11-20T02:38:08.262Z,61.55
2018-11-20T02:39:08.249Z,62.10
2018-11-20T02:40:08.286Z,62.28
2018-11-20T02:41:08.224Z,61.79
2018-11-20T02:42:08.277Z,61.76
2018-11-20T02:43:08.207Z,61.76
2018-11-20T02:44:08.199Z,61.66
2018-11-20T02:45:08.184Z,62.18
2018-11-20T02:46:08.194Z,62.52
2018-11-20T02:47:08.172Z,62.31
2018-11-20T02:48:08.236Z,61.97
2018-11-20T02:49:08.138Z,62.10
2018-11-20T02:50:08.130Z,62.52
2018-11-20T02:51:08.121Z,62.83
2018-11-20T02:52:08.132Z,62.52
2018-11-20T02:53:08.098Z,62.10
2018-11-20T02:54:08.131Z,62.28
2018-11-20T02:55:08.082Z,62.28
2018-11-20T02:56:08.111Z,62.00
2018-11-20T02:57:08.092Z,62.21
2018-11-20T02:58:08.048Z,61.90
2018-11-20T02:59:08.080Z,61.87
2018-11-20T03:00:08.023Z,62.41
2018-11-20T03:01:08.047Z,62.21
2018-11-20T03:02:08.009Z,62.73
2018-11-20T03:03:07.988Z,62.73
2018-11-20T03:04:07.977Z,62.73
2018-11-20T03:05:07.966Z,61.76
2018-11-20T03:06:07.957Z,62.73
2018-11-20T03:07:07.977Z,62.80
2018-11-20T03:08:07.934Z,62.10
2018-11-20T03:09:07.928Z,62.52
2018-11-20T03:10:07.911Z,62.59
2018-11-20T03:11:07.902Z,62.59
2018-11-20T03:12:07.926Z,62.62
2018-11-20T03:13:07.879Z,61.90
2018-11-20T03:14:07.872Z,62.31
2018-11-20T03:15:07.859Z,62.73
2018-11-20T03:16:07.847Z,63.04
2018-11-20T03:17:07.835Z,62.93
2018-11-20T03:18:08.114Z,62.62
2018-11-20T03:19:07.823Z,62.62
2018-11-20T03:20:07.805Z,62.52
2018-11-20T03:21:07.791Z,62.73
2018-11-20T03:22:07.782Z,62.93
2018-11-20T03:23:07.768Z,62.62
2018-11-20T03:24:07.796Z,62.62
2018-11-20T03:25:08.023Z,62.62
2018-11-20T03:26:07.740Z,62.76
2018-11-20T03:27:07.823Z,62.41
2018-11-20T03:28:07.728Z,62.73
2018-11-20T03:29:07.702Z,62.62
2018-11-20T03:30:07.699Z,61.90
2018-11-20T03:31:07.744Z,62.62
2018-11-20T03:32:07.675Z,62.62
2018-11-20T03:33:07.662Z,62.73
2018-11-20T03:34:07.650Z,61.90
2018-11-20T03:35:07.638Z,62.93
2018-11-20T03:36:07.686Z,62.10
2018-11-20T03:37:07.651Z,62.00
2018-11-20T03:38:07.605Z,62.31
2018-11-20T03:39:07.594Z,62.00
2018-11-20T03:40:07.603Z,62.10
2018-11-20T03:41:07.607Z,61.90
2018-11-20T03:42:07.577Z,62.21
2018-11-20T03:43:07.553Z,62.73
2018-11-20T03:44:07.539Z,62.73
2018-11-20T03:45:07.531Z,62.21
2018-11-20T03:46:07.551Z,62.41
2018-11-20T03:47:07.554Z,62.00
2018-11-20T03:48:07.518Z,62.10
2018-11-20T03:49:07.521Z,62.41
2018-11-20T03:50:07.474Z,62.31
2018-11-20T03:51:07.464Z,61.90
2018-11-20T03:52:07.451Z,62.00
2018-11-20T03:53:07.478Z,62.41
2018-11-20T03:54:07.436Z,61.90
2018-11-20T03:55:07.422Z,61.90
2018-11-20T03:56:07.409Z,63.14
2018-11-20T03:57:07.434Z,62.73
2018-11-20T03:58:07.387Z,62.28
2018-11-20T03:59:07.719Z,62.18
2018-11-20T04:00:07.370Z,61.87
2018-11-20T04:01:07.356Z,62.52
2018-11-20T04:02:07.345Z,62.31
2018-11-20T04:03:07.331Z,61.76
2018-11-20T04:04:07.322Z,62.59
2018-11-20T04:05:07.348Z,62.18
2018-11-20T04:06:07.304Z,62.38
2018-11-20T04:07:07.297Z,62.07
2018-11-20T04:08:07.277Z,61.97
2018-11-20T04:09:07.267Z,61.97
2018-11-20T04:10:07.266Z,62.49
2018-11-20T04:11:07.279Z,62.07
2018-11-20T04:12:07.249Z,62.59
2018-11-20T04:13:07.230Z,61.79
2018-11-20T04:14:07.219Z,61.79
2018-11-20T04:15:07.218Z,61.90
2018-11-20T04:16:07.239Z,62.00
2018-11-20T04:17:07.182Z,61.90
2018-11-20T04:18:07.169Z,61.79
2018-11-20T04:19:07.160Z,61.58
2018-11-20T04:20:07.157Z,61.76
2018-11-20T04:21:07.136Z,62.07
2018-11-20T04:22:07.164Z,62.38
2018-11-20T04:23:07.118Z,62.10
2018-11-20T04:24:07.119Z,61.87
2018-11-20T04:25:07.092Z,61.66
2018-11-20T04:26:07.088Z,61.55
2018-11-20T04:27:07.074Z,61.38
2018-11-20T04:28:07.100Z,61.55
2018-11-20T04:29:07.052Z,61.69
2018-11-20T04:30:07.040Z,61.17
2018-11-20T04:31:07.035Z,61.38
2018-11-20T04:32:07.017Z,61.87
2018-11-20T04:33:07.014Z,62.18
2018-11-20T04:34:07.036Z,61.90
2018-11-20T04:35:06.983Z,62.10
2018-11-20T04:36:06.971Z,61.66
2018-11-20T04:37:06.964Z,61.48
2018-11-20T04:38:06.951Z,61.38
2018-11-20T04:39:06.940Z,61.48
2018-11-20T04:40:06.962Z,61.55
2018-11-20T04:41:06.990Z,61.35
2018-11-20T04:42:06.908Z,61.35
2018-11-20T04:43:06.898Z,61.24
2018-11-20T04:44:06.885Z,61.35
2018-11-20T04:45:06.875Z,61.35
2018-11-20T04:46:06.921Z,61.38
2018-11-20T04:47:06.850Z,61.14
2018-11-20T04:48:06.847Z,61.27
2018-11-20T04:49:06.846Z,61.58
2018-11-20T04:50:06.906Z,61.35
2018-11-20T04:51:06.818Z,61.45
2018-11-20T04:52:06.837Z,61.04
2018-11-20T04:53:06.819Z,60.83
2018-11-20T04:54:06.776Z,61.35
2018-11-20T04:55:06.809Z,61.35
2018-11-20T04:56:06.794Z,61.04
2018-11-20T04:57:06.748Z,60.93
2018-11-20T04:58:06.731Z,60.86
2018-11-20T04:59:06.718Z,61.14
2018-11-20T05:00:06.707Z,61.24
2018-11-20T05:01:06.699Z,60.96
2018-11-20T05:02:06.721Z,60.93
2018-11-20T05:03:06.685Z,61.24
2018-11-20T05:04:06.666Z,61.07
2018-11-20T05:05:06.656Z,60.83
2018-11-20T05:06:06.646Z,61.35
2018-11-20T05:07:06.635Z,61.35
2018-11-20T05:08:06.908Z,60.83
2018-11-20T05:09:06.616Z,61.48
2018-11-20T05:10:06.600Z,61.35
2018-11-20T05:11:06.590Z,61.48
2018-11-20T05:12:06.580Z,61.35
2018-11-20T05:13:06.655Z,61.14
2018-11-20T05:14:06.588Z,61.14
2018-11-20T05:15:06.577Z,60.93
2018-11-20T05:16:06.536Z,60.93
2018-11-20T05:17:06.523Z,61.24
2018-11-20T05:18:06.593Z,60.83
2018-11-20T05:19:06.501Z,61.35
2018-11-20T05:20:06.496Z,60.93
2018-11-20T05:21:06.479Z,61.04
2018-11-20T05:22:06.475Z,61.24
2018-11-20T05:23:06.460Z,61.14
2018-11-20T05:24:06.481Z,61.14
2018-11-20T05:25:06.442Z,61.14
2018-11-20T05:26:06.421Z,61.45
2018-11-20T05:27:06.415Z,61.14
2018-11-20T05:28:06.459Z,61.27
2018-11-20T05:29:06.397Z,60.83
2018-11-20T05:30:06.414Z,61.04
2018-11-20T05:31:06.510Z,60.93
2018-11-20T05:32:06.360Z,61.45
2018-11-20T05:33:06.350Z,61.45
2018-11-20T05:34:06.339Z,61.24
2018-11-20T05:35:06.328Z,61.45
2018-11-20T05:36:06.357Z,61.24
2018-11-20T05:37:06.312Z,60.62
2018-11-20T05:38:06.313Z,60.41
2018-11-20T05:39:06.284Z,60.60
2018-11-20T05:40:06.275Z,60.60
2018-11-20T05:41:06.260Z,60.60
2018-11-20T05:42:06.286Z,60.60
2018-11-20T05:43:06.237Z,60.62
2018-11-20T05:44:06.223Z,60.49
2018-11-20T05:45:06.211Z,60.60
2018-11-20T05:46:06.202Z,61.32
2018-11-20T05:47:06.197Z,61.32
2018-11-20T05:48:06.234Z,60.91
2018-11-20T05:49:06.221Z,60.60
2018-11-20T05:50:06.157Z,60.49
2018-11-20T05:51:06.148Z,60.52
2018-11-20T05:52:06.146Z,60.70
2018-11-20T05:53:06.127Z,60.39
2018-11-20T05:54:06.153Z,60.39
2018-11-20T05:55:06.144Z,60.91
2018-11-20T05:56:06.136Z,60.49
2018-11-20T05:57:06.084Z,60.52
2018-11-20T05:58:06.145Z,63.09
2018-11-20T05:59:06.064Z,60.70
2018-11-20T06:00:06.054Z,60.70
2018-11-20T06:01:06.077Z,60.91
2018-11-20T06:02:06.042Z,61.11
2018-11-20T06:03:06.017Z,60.80
2018-11-20T06:04:06.013Z,60.80
2018-11-20T06:05:06.252Z,61.01
2018-11-20T06:06:06.068Z,60.70
2018-11-20T06:07:05.984Z,60.91
2018-11-20T06:08:05.962Z,60.08
2018-11-20T06:09:05.970Z,60.60
2018-11-20T06:10:05.944Z,60.91
2018-11-20T06:11:06.211Z,60.70
2018-11-20T06:12:05.919Z,61.84
2018-11-20T06:13:05.913Z,60.39
2018-11-20T06:14:05.907Z,60.91
2018-11-20T06:15:05.909Z,60.88
2018-11-20T06:16:05.890Z,60.39
2018-11-20T06:17:05.895Z,60.60
2018-11-20T06:18:05.878Z,60.70
2018-11-20T06:19:05.955Z,60.49
2018-11-20T06:20:05.843Z,60.49
2018-11-20T06:21:05.830Z,60.05
2018-11-20T06:22:05.860Z,60.25
2018-11-20T06:23:05.825Z,60.36
2018-11-20T06:24:05.883Z,60.15
2018-11-20T06:25:05.793Z,60.46
2018-11-20T06:26:05.769Z,59.94
2018-11-20T06:27:05.772Z,60.57
2018-11-20T06:28:05.764Z,60.36
2018-11-20T06:29:05.751Z,60.15
2018-11-20T06:30:05.770Z,59.84
2018-11-20T06:31:05.714Z,59.97
2018-11-20T06:32:05.717Z,59.97
2018-11-20T06:33:05.702Z,60.28
2018-11-20T06:34:05.687Z,60.49
2018-11-20T06:35:05.769Z,60.49
2018-11-20T06:36:05.698Z,60.36
2018-11-20T06:37:05.649Z,60.57
2018-11-20T06:38:05.632Z,60.15
2018-11-20T06:39:05.623Z,60.39
2018-11-20T06:40:05.652Z,60.28
2018-11-20T06:41:05.662Z,61.01
2018-11-20T06:42:05.642Z,60.60
2018-11-20T06:43:05.584Z,61.32
2018-11-20T06:44:05.600Z,60.15
2018-11-20T06:45:05.629Z,60.18
2018-11-20T06:46:05.585Z,60.39
2018-11-20T06:47:05.700Z,60.49
2018-11-20T06:48:05.524Z,60.60
2018-11-20T06:49:05.518Z,60.49
2018-11-20T06:50:05.555Z,60.39
2018-11-20T06:51:05.576Z,61.01
2018-11-20T06:52:05.488Z,60.77
2018-11-20T06:53:05.761Z,60.36
2018-11-20T06:54:05.488Z,60.36
2018-11-20T06:55:05.466Z,60.57
2018-11-20T06:56:05.442Z,60.67
2018-11-20T06:57:05.436Z,60.77
2018-11-20T06:58:05.422Z,60.57
2018-11-20T06:59:05.445Z,59.94
2018-11-20T07:00:05.402Z,59.74
2018-11-20T07:01:05.393Z,60.25
2018-11-20T07:02:05.381Z,60.36
2018-11-20T07:03:05.366Z,60.25
2018-11-20T07:04:05.360Z,60.39
2018-11-20T07:05:05.387Z,60.70
2018-11-20T07:06:05.338Z,59.97
2018-11-20T07:07:05.382Z,60.46
2018-11-20T07:08:05.442Z,60.46
2018-11-20T07:09:05.308Z,60.25
2018-11-20T07:10:05.332Z,60.05
2018-11-20T07:11:05.326Z,60.15
2018-11-20T07:12:05.274Z,60.46
2018-11-20T07:13:05.252Z,60.36
2018-11-20T07:14:05.251Z,60.67
2018-11-20T07:15:05.285Z,60.67
2018-11-20T07:16:05.557Z,60.46
2018-11-20T07:17:05.725Z,60.05
2018-11-20T07:18:05.197Z,60.15
2018-11-20T07:19:05.193Z,60.15
2018-11-20T07:20:05.184Z,60.36
2018-11-20T07:21:05.257Z,60.46
2018-11-20T07:23:21.485Z,60.36
2018-11-20T07:24:21.510Z,60.05
2018-11-20T07:25:21.444Z,59.84
2018-11-20T07:26:21.424Z,60.36
2018-11-20T07:27:29.526Z,60.05
2018-11-20T07:28:21.398Z,60.57
2018-11-20T07:29:21.396Z,60.05
2018-11-20T07:30:21.533Z,60.25
2018-11-20T07:31:21.434Z,60.25
2018-11-20T07:32:21.355Z,60.36
2018-11-20T07:33:21.385Z,60.57
2018-11-20T07:34:21.329Z,60.15
2018-11-20T07:35:21.314Z,60.36
2018-11-20T07:36:21.487Z,60.57
2018-11-20T07:37:21.481Z,60.57
2018-11-20T07:38:21.317Z,60.57
2018-11-20T07:39:21.345Z,60.46
2018-11-20T07:40:21.272Z,60.57
2018-11-20T07:41:21.265Z,60.36
2018-11-20T07:42:21.289Z,60.67
2018-11-20T07:43:21.322Z,60.57
2018-11-20T07:44:21.332Z,60.57
2018-11-20T07:45:21.303Z,60.57
2018-11-20T07:46:21.216Z,60.67
2018-11-20T07:47:21.211Z,60.53
2018-11-20T07:48:21.199Z,60.33
2018-11-20T07:49:21.465Z,59.94
2018-11-20T07:50:21.178Z,60.12
2018-11-20T07:51:21.192Z,60.15
2018-11-20T07:52:21.138Z,60.22
2018-11-20T07:53:21.133Z,60.02
2018-11-20T07:54:21.134Z,60.43
2018-11-20T07:55:21.161Z,60.43
2018-11-20T07:56:21.240Z,60.43
2018-11-20T07:57:21.090Z,60.36
2018-11-20T07:58:21.079Z,60.33
2018-11-20T07:59:21.056Z,60.33
2018-11-20T08:00:21.083Z,60.64
2018-11-20T08:01:21.111Z,60.85
2018-11-20T08:02:21.132Z,60.22
2018-11-20T08:03:21.015Z,60.43
2018-11-20T08:04:21.004Z,60.43
2018-11-20T08:05:21.587Z,60.12
2018-11-20T08:06:21.127Z,59.99
2018-11-20T08:07:20.982Z,60.30
2018-11-20T08:08:20.986Z,60.30
2018-11-20T08:09:20.950Z,60.51
2018-11-20T08:10:21.028Z,59.99
2018-11-20T08:11:20.931Z,59.89
2018-11-20T08:12:21.110Z,59.99
2018-11-20T08:13:20.908Z,60.10
2018-11-20T08:14:20.909Z,60.20
2018-11-20T08:15:20.957Z,59.68
2018-11-20T08:16:20.882Z,59.68
2018-11-20T08:17:20.877Z,59.89
2018-11-20T08:18:20.884Z,59.89
2018-11-20T08:19:20.845Z,59.68
2018-11-20T08:20:20.836Z,59.58
2018-11-20T08:21:20.826Z,59.99
2018-11-20T08:22:20.818Z,60.30
2018-11-20T08:23:20.841Z,59.68
2018-11-20T08:24:20.835Z,59.58
2018-11-20T08:25:20.853Z,60.41
2018-11-20T08:26:20.947Z,59.78
2018-11-20T08:27:20.771Z,60.69
2018-11-20T08:28:20.770Z,59.34
2018-11-20T08:29:20.771Z,59.14
2018-11-20T08:30:20.724Z,59.14
2018-11-20T08:31:20.767Z,59.75
2018-11-20T08:32:20.724Z,59.66
2018-11-20T08:33:20.732Z,59.45
2018-11-20T08:34:20.797Z,59.34
2018-11-20T08:35:20.840Z,60.27
2018-11-20T08:36:20.698Z,59.11
2018-11-20T08:37:20.674Z,58.93
2018-11-20T08:38:20.673Z,59.66
2018-11-20T08:39:20.621Z,59.24
2018-11-20T08:40:20.624Z,59.21
2018-11-20T08:41:23.140Z,58.69
2018-11-20T08:42:22.959Z,59.14
2018-11-20T08:43:20.592Z,59.42
2018-11-20T08:44:20.630Z,59.55
2018-11-20T08:45:20.571Z,59.73
2018-11-20T08:46:20.596Z,59.34
2018-11-20T08:47:20.545Z,59.24
2018-11-20T08:48:20.619Z,59.34
2018-11-20T08:49:20.516Z,59.75
2018-11-20T08:50:20.575Z,59.34
2018-11-20T08:51:20.506Z,59.24
2018-11-20T08:52:20.496Z,59.24
2018-11-20T08:53:20.476Z,59.24
2018-11-20T08:54:20.468Z,59.52
2018-11-20T08:55:20.472Z,59.00
2018-11-20T08:56:20.499Z,58.77
2018-11-20T08:57:20.438Z,57.97
2018-11-20T08:58:20.468Z,58.59
2018-11-20T08:59:20.415Z,58.69
2018-11-20T09:00:20.404Z,58.46
2018-11-20T09:01:20.404Z,58.48
2018-11-20T09:02:20.610Z,58.28
2018-11-20T09:03:20.487Z,58.83
2018-11-20T09:04:20.356Z,59.11
2018-11-20T09:05:20.360Z,59.14
2018-11-20T09:06:20.348Z,59.14
2018-11-20T09:07:20.435Z,58.93
2018-11-20T09:08:20.324Z,59.52
2018-11-20T09:09:20.351Z,59.63
2018-11-20T09:10:20.329Z,59.31
2018-11-20T09:11:20.292Z,58.80
2018-11-20T09:12:20.270Z,58.98
2018-11-20T09:13:20.268Z,58.80
2018-11-20T09:14:20.297Z,59.31
2018-11-20T09:15:20.254Z,58.80
2018-11-20T09:16:20.225Z,58.48
2018-11-20T09:17:20.259Z,58.90
2018-11-20T09:18:20.263Z,58.80
2018-11-20T09:19:20.204Z,58.59
2018-11-20T09:20:20.282Z,59.24
2018-11-20T09:21:20.250Z,59.11
2018-11-20T09:22:20.176Z,59.11
2018-11-20T09:23:20.160Z,59.00
2018-11-20T09:24:20.144Z,58.90
2018-11-20T09:25:20.128Z,59.11
2018-11-20T09:26:20.163Z,58.80
2018-11-20T09:27:20.108Z,58.80
2018-11-20T09:28:20.108Z,58.28
2018-11-20T09:29:20.136Z,58.67
2018-11-20T09:30:20.089Z,58.59
2018-11-20T09:31:20.077Z,58.98
2018-11-20T09:32:20.056Z,59.19
2018-11-20T09:33:20.085Z,58.67
2018-11-20T09:34:20.059Z,58.46
2018-11-20T09:35:20.330Z,58.77
2018-11-20T09:36:20.041Z,58.56
2018-11-20T09:37:20.021Z,58.77
2018-11-20T09:38:20.018Z,59.08
2018-11-20T09:39:19.985Z,58.87
2018-11-20T09:40:19.966Z,58.84
2018-11-20T09:41:19.954Z,58.64
2018-11-20T09:42:19.943Z,57.92
2018-11-20T09:43:19.990Z,58.87
2018-11-20T09:44:19.972Z,58.46
2018-11-20T09:45:19.909Z,59.47
2018-11-20T09:46:19.909Z,58.74
2018-11-20T09:47:19.893Z,59.05
2018-11-20T09:48:19.909Z,58.30
2018-11-20T09:49:19.922Z,58.33
2018-11-20T09:50:19.897Z,57.92
2018-11-20T09:51:19.884Z,57.60
2018-11-20T09:52:19.948Z,57.92
2018-11-20T09:53:19.825Z,58.54
2018-11-20T09:54:19.899Z,58.20
2018-11-20T09:55:19.862Z,57.92
2018-11-20T09:56:19.841Z,57.71
2018-11-20T09:57:19.853Z,57.50
2018-11-20T09:58:19.793Z,58.23
2018-11-20T09:59:19.924Z,57.92
2018-11-20T10:00:19.749Z,58.23
2018-11-20T10:01:19.789Z,57.71
2018-11-20T10:02:20.020Z,57.81
2018-11-20T10:03:19.982Z,58.20
2018-11-20T10:04:20.103Z,57.48
2018-11-20T10:05:19.694Z,57.17
2018-11-20T10:06:19.716Z,57.27
2018-11-20T10:07:19.759Z,57.37
2018-11-20T10:08:19.662Z,57.58
2018-11-20T10:09:20.006Z,56.96
2018-11-20T10:10:19.657Z,57.58
2018-11-20T10:11:19.631Z,57.48
2018-11-20T10:12:19.652Z,57.48
2018-11-20T10:13:19.692Z,57.27
2018-11-20T10:14:19.836Z,57.79
2018-11-20T10:15:19.690Z,57.68
2018-11-20T10:16:19.593Z,57.58
2018-11-20T10:17:19.565Z,57.37
2018-11-20T10:18:19.594Z,57.37
2018-11-20T10:19:19.544Z,57.68
2018-11-20T10:20:19.586Z,57.79
2018-11-20T10:21:19.615Z,57.89
2018-11-20T10:22:20.276Z,57.68
2018-11-20T10:23:20.027Z,57.89
2018-11-20T10:24:19.540Z,58.30
2018-11-20T10:25:19.576Z,58.20
2018-11-20T10:26:19.577Z,58.09
2018-11-20T10:27:19.453Z,58.09
2018-11-20T10:28:19.494Z,57.37
2018-11-20T10:29:19.440Z,58.40
2018-11-20T10:30:19.471Z,58.40
2018-11-20T10:31:19.422Z,58.09
2018-11-20T10:32:19.408Z,58.40
2018-11-20T10:33:19.423Z,58.09
2018-11-20T10:34:19.489Z,58.20
2018-11-20T10:35:19.395Z,57.89
2018-11-20T10:36:19.444Z,58.20
2018-11-20T10:37:19.358Z,58.09
2018-11-20T10:38:19.338Z,58.30
2018-11-20T10:39:19.337Z,58.09
2018-11-20T10:40:19.333Z,58.51
2018-11-20T10:41:19.303Z,58.61
2018-11-20T10:42:19.353Z,58.61
2018-11-20T10:43:19.289Z,58.72
2018-11-20T10:44:19.277Z,57.79
2018-11-20T10:45:19.328Z,57.58
2018-11-20T10:46:19.437Z,57.58
2018-11-20T10:47:19.244Z,57.58
2018-11-20T10:48:19.261Z,57.89
2018-11-20T10:49:19.229Z,57.89
2018-11-20T10:50:19.206Z,57.58
2018-11-20T10:51:19.263Z,57.27
2018-11-20T10:52:19.187Z,58.09
2018-11-20T10:53:19.171Z,58.30
2018-11-20T10:54:19.212Z,58.30
2018-11-20T10:55:19.146Z,58.30
2018-11-20T10:56:19.140Z,58.59
2018-11-20T10:57:19.132Z,57.76
2018-11-20T10:58:19.122Z,57.24
2018-11-20T10:59:20.080Z,57.55
2018-11-20T11:00:19.130Z,57.48
2018-11-20T11:01:19.102Z,57.58
2018-11-20T11:02:19.085Z,57.58
2018-11-20T11:03:19.070Z,57.89
2018-11-20T11:04:19.197Z,57.58
2018-11-20T11:05:19.068Z,57.89
2018-11-20T11:06:19.162Z,57.86
2018-11-20T11:07:19.041Z,57.86
2018-11-20T11:08:19.030Z,58.04
2018-11-20T11:09:18.997Z,57.04
2018-11-20T11:10:19.015Z,57.34
2018-11-20T11:11:19.014Z,57.48
2018-11-20T11:12:19.077Z,57.65
2018-11-20T11:13:18.965Z,57.34
2018-11-20T11:14:18.947Z,57.55
2018-11-20T11:15:19.012Z,57.14
2018-11-20T11:16:18.921Z,57.14
2018-11-20T11:17:18.929Z,57.24
2018-11-20T11:18:18.947Z,57.01
2018-11-20T11:19:18.891Z,57.21
2018-11-20T11:20:18.979Z,57.01
2018-11-20T11:21:18.871Z,57.11
2018-11-20T11:22:18.860Z,57.11
2018-11-20T11:23:18.848Z,57.01
2018-11-20T11:24:18.832Z,56.46
2018-11-20T11:25:18.857Z,56.90
2018-11-20T11:26:18.866Z,56.77
2018-11-20T11:27:18.811Z,57.11
2018-11-20T11:28:18.792Z,57.63
2018-11-20T11:29:18.802Z,57.53
2018-11-20T11:30:18.780Z,57.09
2018-11-20T11:31:18.761Z,57.09
2018-11-20T11:32:18.848Z,56.57
2018-11-20T11:33:24.116Z,56.67
2018-11-20T11:34:19.723Z,56.77
2018-11-20T11:35:18.724Z,56.39
2018-11-20T11:36:18.705Z,56.88
2018-11-20T11:37:18.719Z,56.88
2018-11-20T11:38:18.681Z,56.57
2018-11-20T11:39:18.714Z,56.57
2018-11-20T11:40:18.675Z,57.09
2018-11-20T11:41:18.653Z,57.47
2018-11-20T11:42:18.636Z,56.57
2018-11-20T11:43:18.683Z,55.72
2018-11-20T11:44:18.617Z,56.44
2018-11-20T11:45:18.639Z,55.93
2018-11-20T11:46:18.603Z,56.34
2018-11-20T11:47:18.584Z,56.23
2018-11-20T11:48:18.580Z,56.13
2018-11-20T11:49:18.586Z,55.51
2018-11-20T11:50:18.641Z,55.30
2018-11-20T11:51:18.556Z,55.62
2018-11-20T11:52:18.538Z,55.30
2018-11-20T11:53:18.518Z,55.62
2018-11-20T11:54:18.510Z,55.72
2018-11-20T11:55:18.519Z,55.62
2018-11-20T11:56:18.524Z,55.41
2018-11-20T11:57:18.475Z,56.03
2018-11-20T11:58:18.799Z,55.33
2018-11-20T11:59:18.452Z,55.64
2018-11-20T12:00:18.450Z,56.13
2018-11-20T12:01:18.428Z,55.28
2018-11-20T12:03:18.408Z,55.49
2018-11-20T12:04:18.401Z,55.82
2018-11-20T12:05:18.408Z,55.72
2018-11-20T12:06:18.375Z,55.72
2018-11-20T12:07:18.363Z,55.28
2018-11-20T12:08:18.649Z,55.38
2018-11-20T12:09:18.448Z,55.30
2018-11-20T12:10:18.675Z,55.18
2018-11-20T12:11:18.385Z,55.51
2018-11-20T12:12:18.374Z,55.69
2018-11-20T12:13:19.399Z,55.30
2018-11-20T12:14:18.296Z,55.82
2018-11-20T12:15:18.361Z,55.30
2018-11-20T12:16:18.269Z,56.13
2018-11-20T12:17:18.262Z,56.03
2018-11-20T12:18:18.243Z,56.03
2018-11-20T12:19:18.525Z,56.23
2018-11-20T12:20:18.243Z,55.72
2018-11-20T12:21:18.224Z,56.54
2018-11-20T12:22:18.227Z,56.00
2018-11-20T12:23:18.193Z,55.59
2018-11-20T12:24:18.180Z,55.49
2018-11-20T12:25:18.223Z,56.21
2018-11-20T12:26:18.153Z,56.00
2018-11-20T12:27:18.149Z,55.69
2018-11-20T12:28:18.136Z,55.59
2018-11-20T12:29:18.121Z,55.90
2018-11-20T12:30:18.131Z,56.13
2018-11-20T12:31:18.163Z,56.44
2018-11-20T12:32:18.102Z,56.75
2018-11-20T12:33:18.144Z,56.13
2018-11-20T12:34:18.964Z,56.21
2018-11-20T12:35:18.062Z,55.90
2018-11-20T12:36:18.075Z,56.00
2018-11-20T12:37:18.111Z,55.80
2018-11-20T12:38:19.598Z,55.87
2018-11-20T12:39:19.844Z,55.38
2018-11-20T12:40:18.002Z,56.54
2018-11-20T12:41:18.015Z,56.75
2018-11-20T12:42:17.983Z,57.26
2018-11-20T12:43:18.313Z,56.62
2018-11-20T12:44:18.107Z,56.21
2018-11-20T12:45:17.966Z,56.75
2018-11-20T12:46:17.997Z,56.75
2018-11-20T12:47:17.929Z,56.96
2018-11-20T12:48:17.915Z,56.75
2018-11-20T12:49:19.085Z,57.47
2018-11-20T12:50:17.910Z,56.73
2018-11-20T12:51:17.889Z,56.75
2018-11-20T12:52:17.872Z,57.17
2018-11-20T12:53:21.307Z,56.54
2018-11-20T12:54:17.847Z,56.85